Time;durP1;ratioP1;P1;durP2;ratioP2;P2;SDS_P1;SDS_P2;PMS_P1;PMS_P2;Temp;Humidity;BMP_temperature;BMP_pressure;BME280_temperature;BME280_humidity;BME280_pressure;Samples;Min_cycle;Max_cycle;Signal;HPM_P1;HPM_P2
2023/03/03 00:00:14;;;;;;;;;;;;;;;;;;5082125;28;19920;-68
2023/03/03 00:02:40;;;;;;;;;;;;;;;;;;5070890;28;19924;-68
2023/03/03 00:05:06;;;;;;;;;;;;;;;;;;5072337;28;19932;-69
2023/03/03 00:07:31;;;;;;;;;;;;;;;;;;5070362;28;20718;-68
2023/03/03 00:09:57;;;;;;;;;;;0.10;99.90;;;;;;5064972;28;20003;-68
2023/03/03 00:12:24;;;;;;;;;;;-0.10;99.90;;;;;;5054307;28;19920;-69
2023/03/03 00:14:50;;;;;;;;;;;;;;;;;;5075490;28;19920;-68
2023/03/03 00:17:16;;;;;;;;;;;;;;;;;;5077018;28;19970;-68
2023/03/03 00:19:46;;;;;;;;;;;0.50;99.90;;;;;;5062356;28;19924;-68
2023/03/03 00:22:12;;;;;;;;;;;;;;;;;;5086400;28;19920;-68
2023/03/03 00:24:37;;;;;;;;;;;;;;;;;;5060686;28;20396;-69
2023/03/03 00:27:26;;;;;;;;;;;0.40;97.10;;;;;;5076712;28;20392;-69
2023/03/03 00:29:53;;;;;;;;;;;0.10;99.90;;;;;;5061438;28;20007;-69
2023/03/03 00:32:19;;;;;;;;;;;;;;;;;;5082697;28;19925;-69
2023/03/03 00:34:46;;;;;;;;;;;;;;;;;;5050592;28;20408;-71
2023/03/03 00:37:11;;;;;;;;;;;;;;;;;;5038533;28;20410;-69
2023/03/03 00:39:37;;;;;;;;;;;;;;;;;;5075437;28;19927;-68
2023/03/03 00:42:03;;;;;;;;;;;;;;;;;;5077693;28;20440;-67
2023/03/03 00:44:32;;;;;;;;;;;0.90;99.90;;;;;;5053681;28;20436;-66
2023/03/03 00:46:58;;;;;;;;;;;;;;;;;;5066528;28;20642;-67
2023/03/03 00:49:24;;;;;;;;;;;;;;;;;;5052061;28;19920;-68
2023/03/03 00:51:50;;;;;;;;;;;0.00;99.90;;;;;;5073364;28;19962;-67
2023/03/03 00:54:16;;;;;;;;;;;;;;;;;;5081366;28;19924;-67
2023/03/03 00:56:42;;;;;;;;;;;;;;;;;;5069495;28;19924;-69
2023/03/03 00:59:08;;;;;;;;;;;;;;;;;;5076774;28;19924;-68
2023/03/03 01:01:34;;;;;;;;;;;;;;;;;;5072930;28;20463;-68
2023/03/03 01:04:00;;;;;;;;;;;;;;;;;;5077947;28;19928;-68
2023/03/03 01:06:26;;;;;;;;;;;;;;;;;;5069628;28;19977;-67
2023/03/03 01:08:53;;;;;;;;;;;0.00;99.90;;;;;;5065716;28;20015;-65
2023/03/03 01:11:19;;;;;;;;;;;;;;;;;;5054956;28;19927;-65
2023/03/03 01:13:46;;;;;;;;;;;0.50;99.90;;;;;;5070445;28;19921;-65
2023/03/03 01:16:12;;;;;;;;;;;;;;;;;;5063068;28;19997;-64
2023/03/03 01:18:39;;;;;;;;;;;;;;;;;;5067819;28;20344;-65
2023/03/03 01:21:05;;;;;;;;;;;;;;;;;;5057934;28;20238;-65
2023/03/03 01:23:31;;;;;;;;;;;;;;;;;;5079423;28;19920;-65
2023/03/03 01:25:57;;;;;;;;;;;;;;;;;;5052914;28;20447;-65
2023/03/03 01:28:23;;;;;;;;;;;;;;;;;;5073524;28;19924;-65
2023/03/03 01:30:49;;;;;;;;;;;;;;;;;;5043287;28;20394;-66
2023/03/03 01:33:15;;;;;;;;;;;-0.10;99.90;;;;;;5086120;28;19924;-66
2023/03/03 01:35:41;;;;;;;;;;;;;;;;;;5058316;28;20007;-65
2023/03/03 01:38:07;;;;;;;;;;;;;;;;;;5074141;28;20453;-65
2023/03/03 01:40:32;;;;;;;;;;;-0.10;99.90;;;;;;5074153;28;20547;-65
2023/03/03 01:42:58;;;;;;;;;;;;;;;;;;5073050;28;19927;-66
2023/03/03 01:45:24;;;;;;;;;;;;;;;;;;5079847;28;20357;-65
2023/03/03 01:47:56;;;;;;;;;;;0.00;99.90;;;;;;5073617;28;19932;-66
2023/03/03 01:50:22;;;;;;;;;;;;;;;;;;5073205;28;19920;-65
2023/03/03 01:52:48;;;;;;;;;;;;;;;;;;5068448;28;20393;-63
2023/03/03 01:55:14;;;;;;;;;;;;;;;;;;5075518;28;20594;-67
2023/03/03 01:57:40;;;;;;;;;;;;;;;;;;5072832;28;20380;-67
2023/03/03 02:00:06;;;;;;;;;;;-0.20;99.90;;;;;;5072798;28;19928;-66
2023/03/03 02:02:32;;;;;;;;;;;;;;;;;;5060527;28;19991;-67
2023/03/03 02:04:58;;;;;;;;;;;;;;;;;;5078764;28;20392;-66
2023/03/03 02:07:23;;;;;;;;;;;;;;;;;;5081086;28;19924;-65
2023/03/03 02:09:58;;;;;;;;;;;-0.30;99.90;;;;;;5060790;28;20357;-66
2023/03/03 02:12:27;;;;;;;;;;;0.20;99.90;;;;;;5078023;28;19920;-66
2023/03/03 02:14:53;;;;;;;;;;;;;;;;;;5073885;28;19974;-67
2023/03/03 02:17:18;;;;;;;;;;;0.60;99.90;;;;;;5076040;28;20344;-67
2023/03/03 02:19:44;;;;;;;;;;;;;;;;;;5035171;28;20324;-65
2023/03/03 02:22:10;;;;;;;;;;;0.50;99.90;;;;;;5081722;28;20299;-65
2023/03/03 02:24:36;;;;;;;;;;;;;;;;;;5056929;28;19920;-66
2023/03/03 02:27:02;;;;;;;;;;;;;;;;;;5073274;28;19924;-65
2023/03/03 02:29:28;;;;;;;;;;;;;;;;;;5052379;28;20427;-67
2023/03/03 02:31:54;;;;;;;;;;;;;;;;;;5069895;28;20385;-67
2023/03/03 02:34:20;;;;;;;;;;;;;;;;;;5069782;28;19968;-66
2023/03/03 02:36:45;;;;;;;;;;;0.90;99.90;;;;;;5056318;28;19924;-66
2023/03/03 02:39:11;;;;;;;;;;;;;;;;;;5068080;28;20411;-66
2023/03/03 02:41:37;;;;;;;;;;;0.00;99.70;;;;;;5069820;28;20394;-65
2023/03/03 02:44:03;;;;;;;;;;;;;;;;;;5069242;28;20278;-66
2023/03/03 02:46:28;;;;;;;;;;;;;;;;;;5048605;28;19921;-66
2023/03/03 02:48:54;;;;;;;;;;;;;;;;;;5082855;28;19927;-66
2023/03/03 02:51:20;;;;;;;;;;;;;;;;;;5051620;28;19921;-66
2023/03/03 02:53:46;;;;;;;;;;;0.00;99.90;;;;;;5077705;28;20339;-65
2023/03/03 02:56:12;;;;;;;;;;;;;;;;;;5069356;28;20279;-66
2023/03/03 02:58:38;;;;;;;;;;;;;;;;;;5086222;28;20023;-66
2023/03/03 03:01:04;;;;;;;;;;;;;;;;;;5068976;28;19920;-63
2023/03/03 03:03:30;;;;;;;;;;;;;;;;;;5081681;28;20628;-66
2023/03/03 03:05:56;;;;;;;;;;;;;;;;;;5056543;28;20336;-66
2023/03/03 03:08:21;;;;;;;;;;;0.50;99.90;;;;;;5058290;28;20362;-66
2023/03/03 03:10:48;;;;;;;;;;;;;;;;;;5073222;28;20003;-65
2023/03/03 03:13:13;;;;;;;;;;;;;;;;;;5063708;28;19971;-66
2023/03/03 03:15:39;;;;;;;;;;;;;;;;;;5081534;28;19971;-63
2023/03/03 03:18:06;;;;;;;;;;;-0.10;99.90;;;;;;5055322;28;19931;-66
2023/03/03 03:20:32;;;;;;;;;;;;;;;;;;5045070;28;19924;-65
2023/03/03 03:22:58;;;;;;;;;;;;;;;;;;5070663;28;19920;-63
2023/03/03 03:25:24;;;;;;;;;;;;;;;;;;5084288;28;19955;-64
2023/03/03 03:27:49;;;;;;;;;;;-0.20;99.90;;;;;;5074178;28;20413;-65
2023/03/03 03:30:15;;;;;;;;;;;;;;;;;;5064008;28;20309;-65
2023/03/03 03:32:42;;;;;;;;;;;;;;;;;;5062664;28;19920;-64
2023/03/03 03:35:07;;;;;;;;;;;;;;;;;;5054624;28;19920;-64
2023/03/03 03:37:36;;;;;;;;;;;;;;;;;;5086827;28;19928;-65
2023/03/03 03:40:01;;;;;;;;;;;0.60;99.90;;;;;;5082286;28;19927;-65
2023/03/03 03:42:27;;;;;;;;;;;;;;;;;;5066046;28;19920;-65
2023/03/03 03:44:53;;;;;;;;;;;;;;;;;;5080311;28;19921;-65
2023/03/03 03:47:19;;;;;;;;;;;0.00;99.90;;;;;;5075485;28;20007;-65
2023/03/03 03:49:45;;;;;;;;;;;;;;;;;;5078606;28;19924;-64
2023/03/03 03:52:10;;;;;;;;;;;;;;;;;;5078606;28;20404;-66
2023/03/03 03:54:37;;;;;;;;;;;;;;;;;;5056855;28;20305;-65
2023/03/03 03:57:03;;;;;;;;;;;;;;;;;;5089276;28;19989;-66
2023/03/03 03:59:28;;;;;;;;;;;-0.20;99.90;;;;;;5083544;28;20373;-65
2023/03/03 04:01:54;;;;;;;;;;;;;;;;;;5088516;28;19963;-65
2023/03/03 04:04:20;;;;;;;;;;;0.70;99.90;;;;;;5075446;28;20316;-65
2023/03/03 04:06:46;;;;;;;;;;;;;;;;;;5080801;28;20301;-63
2023/03/03 04:09:11;;;;;;;;;;;;;;;;;;5086431;28;19920;-66
2023/03/03 04:11:37;;;;;;;;;;;;;;;;;;5075724;28;19928;-66
2023/03/03 04:14:03;;;;;;;;;;;0.10;99.90;;;;;;5078108;28;19925;-66
2023/03/03 04:16:29;;;;;;;;;;;0.10;99.90;;;;;;5085082;28;19921;-66
2023/03/03 04:18:54;;;;;;;;;;;-0.10;99.90;;;;;;5077336;28;20356;-66
2023/03/03 04:21:20;;;;;;;;;;;;;;;;;;5048875;28;20367;-66
2023/03/03 04:23:46;;;;;;;;;;;;;;;;;;5057047;28;19924;-66
2023/03/03 04:26:12;;;;;;;;;;;0.40;99.90;;;;;;5071264;28;19974;-66
2023/03/03 04:28:37;;;;;;;;;;;;;;;;;;5072824;28;19928;-66
2023/03/03 04:31:03;;;;;;;;;;;0.00;99.90;;;;;;5061988;28;19947;-65
2023/03/03 04:33:29;;;;;;;;;;;;;;;;;;5076109;28;20404;-65
2023/03/03 04:35:55;;;;;;;;;;;;;;;;;;5069829;28;19982;-63
2023/03/03 04:38:21;;;;;;;;;;;;;;;;;;5079038;28;20015;-66
2023/03/03 04:40:47;;;;;;;;;;;;;;;;;;5076050;28;19920;-65
2023/03/03 04:43:13;;;;;;;;;;;;;;;;;;5076071;28;20270;-65
2023/03/03 04:45:38;;;;;;;;;;;0.30;99.90;;;;;;5066289;28;20350;-65
2023/03/03 04:48:04;;;;;;;;;;;;;;;;;;5073555;28;20398;-64
2023/03/03 04:50:30;;;;;;;;;;;;;;;;;;5053261;28;19920;-64
2023/03/03 04:52:56;;;;;;;;;;;;;;;;;;5060935;28;19924;-64
2023/03/03 04:55:22;;;;;;;;;;;;;;;;;;5054191;28;20351;-63
2023/03/03 04:57:48;;;;;;;;;;;;;;;;;;5074089;28;19927;-66
2023/03/03 05:00:14;;;;;;;;;;;;;;;;;;5075465;28;19920;-66
2023/03/03 05:02:40;;;;;;;;;;;;;;;;;;5075064;28;19989;-66
2023/03/03 05:05:06;;;;;;;;;;;;;;;;;;5062763;28;19924;-66
2023/03/03 05:07:32;;;;;;;;;;;0.40;99.90;;;;;;5077467;28;19928;-65
2023/03/03 05:09:58;;;;;;;;;;;;;;;;;;5078220;28;19921;-65
2023/03/03 05:12:24;;;;;;;;;;;;;;;;;;5067603;28;19968;-64
2023/03/03 05:14:49;;;;;;;;;;;;;;;;;;5083472;28;19938;-64
2023/03/03 05:17:15;;;;;;;;;;;;;;;;;;5080424;28;20122;-63
2023/03/03 05:19:41;;;;;;;;;;;;;;;;;;5061489;28;19920;-65
2023/03/03 05:22:07;;;;;;;;;;;;;;;;;;5083220;28;19966;-66
2023/03/03 05:24:33;;;;;;;;;;;1.00;99.90;;;;;;5053805;28;20390;-66
2023/03/03 05:26:59;;;;;;;;;;;;;;;;;;5080765;28;19987;-66
2023/03/03 05:29:26;;;;;;;;;;;;;;;;;;5074915;28;19920;-65
2023/03/03 05:31:52;;;;;;;;;;;;;;;;;;5076957;28;19927;-66
2023/03/03 05:34:18;;;;;;;;;;;1.10;99.90;;;;;;5073250;28;19920;-66
2023/03/03 05:36:44;;;;;;;;;;;;;;;;;;5072686;28;19971;-66
2023/03/03 05:39:09;;;;;;;;;;;0.80;99.90;;;;;;5079313;28;20466;-66
2023/03/03 05:41:35;;;;;;;;;;;;;;;;;;5064188;28;19921;-64
2023/03/03 05:44:01;;;;;;;;;;;;;;;;;;5070663;28;19920;-64
2023/03/03 05:46:27;;;;;;;;;;;;;;;;;;5082214;28;19928;-63
2023/03/03 05:48:53;;;;;;;;;;;;;;;;;;5076696;28;20174;-66
2023/03/03 05:51:19;;;;;;;;;;;0.80;99.90;;;;;;5078049;28;19943;-65
2023/03/03 05:53:44;;;;;;;;;;;0.60;99.90;;;;;;5070194;28;19944;-65
2023/03/03 05:56:10;;;;;;;;;;;;;;;;;;5069588;28;19921;-64
2023/03/03 05:58:36;;;;;;;;;;;;;;;;;;5065799;28;19986;-65
2023/03/03 06:01:02;;;;;;;;;;;;;;;;;;5079089;28;19985;-64
2023/03/03 06:03:28;;;;;;;;;;;;;;;;;;5086821;28;19923;-66
2023/03/03 06:05:54;;;;;;;;;;;;;;;;;;5057900;28;19927;-66
2023/03/03 06:08:20;;;;;;;;;;;;;;;;;;5051266;28;19924;-66
2023/03/03 06:10:45;;;;;;;;;;;1.00;99.90;;;;;;5071369;28;20401;-65
2023/03/03 06:13:11;;;;;;;;;;;;;;;;;;5047280;28;19987;-64
2023/03/03 06:15:37;;;;;;;;;;;;;;;;;;5065307;28;19924;-62
2023/03/03 06:18:03;;;;;;;;;;;;;;;;;;5055809;28;19921;-65
2023/03/03 06:20:29;;;;;;;;;;;;;;;;;;5082079;28;20397;-65
2023/03/03 06:22:55;;;;;;;;;;;;;;;;;;5063295;28;20313;-65
2023/03/03 06:25:21;;;;;;;;;;;;;;;;;;5072642;28;19950;-67
2023/03/03 06:27:47;;;;;;;;;;;;;;;;;;5077251;28;20385;-65
2023/03/03 06:30:13;;;;;;;;;;;;;;;;;;5069477;28;20000;-66
2023/03/03 06:32:39;;;;;;;;;;;1.30;99.90;;;;;;5078963;28;19959;-65
2023/03/03 06:35:05;;;;;;;;;;;;;;;;;;5080593;28;20000;-64
2023/03/03 06:37:30;;;;;;;;;;;;;;;;;;5054107;28;20019;-66
2023/03/03 06:39:56;;;;;;;;;;;;;;;;;;5075795;28;19932;-64
2023/03/03 06:42:23;;;;;;;;;;;;;;;;;;5053037;28;19923;-64
2023/03/03 06:44:49;;;;;;;;;;;0.90;99.90;;;;;;5076610;28;19925;-65
2023/03/03 06:47:15;;;;;;;;;;;;;;;;;;5070859;28;20031;-63
2023/03/03 06:49:41;;;;;;;;;;;;;;;;;;5071098;28;19944;-64
2023/03/03 06:52:07;;;;;;;;;;;;;;;;;;5053127;28;20377;-67
2023/03/03 06:54:32;;;;;;;;;;;1.10;99.90;;;;;;5053389;28;19921;-67
2023/03/03 06:56:58;;;;;;;;;;;;;;;;;;5043239;28;19943;-67
2023/03/03 06:59:25;;;;;;;;;;;;;;;;;;5080320;28;19928;-67
2023/03/03 07:01:51;;;;;;;;;;;;;;;;;;5090955;28;19920;-67
2023/03/03 07:04:32;;;;;;;;;;;1.20;99.90;;;;;;5081409;28;20420;-67
2023/03/03 07:06:58;;;;;;;;;;;;;;;;;;5073059;28;19930;-65
2023/03/03 07:09:24;;;;;;;;;;;;;;;;;;5057024;28;19920;-66
2023/03/03 07:11:50;;;;;;;;;;;;;;;;;;5063933;28;19931;-64
2023/03/03 07:14:16;;;;;;;;;;;;;;;;;;5071698;28;20011;-65
2023/03/03 07:16:42;;;;;;;;;;;;;;;;;;5077035;28;20130;-66
2023/03/03 07:19:26;;;;;;;;;;;1.30;99.90;;;;;;5056146;28;19924;-66
2023/03/03 07:21:52;;;;;;;;;;;;;;;;;;5089015;28;19920;-66
2023/03/03 07:24:23;;;;;;;;;;;1.40;99.90;;;;;;5087726;28;19920;-66
2023/03/03 07:26:49;;;;;;;;;;;;;;;;;;5068390;28;19962;-66
2023/03/03 07:29:29;;;;;;;;;;;0.90;99.90;;;;;;5083387;28;19920;-66
2023/03/03 07:31:58;;;;;;;;;;;1.50;99.90;;;;;;5052255;28;19927;-66
2023/03/03 07:34:24;;;;;;;;;;;;;;;;;;5077719;28;20432;-64
2023/03/03 07:36:50;;;;;;;;;;;;;;;;;;5064047;28;19924;-65
2023/03/03 07:39:16;;;;;;;;;;;;;;;;;;5058785;28;19924;-65
2023/03/03 07:41:42;;;;;;;;;;;;;;;;;;5059485;28;19927;-66
2023/03/03 07:44:08;;;;;;;;;;;;;;;;;;5077382;28;20397;-65
2023/03/03 07:46:40;;;;;;;;;;;2.30;99.90;;;;;;5083996;28;19920;-66
2023/03/03 07:49:06;;;;;;;;;;;;;;;;;;5083725;28;19924;-66
2023/03/03 07:51:32;;;;;;;;;;;;;;;;;;5074362;28;19924;-66
2023/03/03 07:54:16;;;;;;;;;;;3.00;99.90;;;;;;5082711;28;20025;-65
2023/03/03 07:56:42;;;;;;;;;;;2.40;99.90;;;;;;5058418;28;19974;-65
2023/03/03 07:59:07;;;;;;;;;;;;;;;;;;5077277;28;19924;-65
2023/03/03 08:01:33;;;;;;;;;;;;;;;;;;5057337;28;20300;-65
2023/03/03 08:03:59;;;;;;;;;;;;;;;;;;5076142;28;20413;-65
2023/03/03 08:06:34;;;;;;;;;;;2.90;99.90;;;;;;5068284;28;19964;-66
2023/03/03 08:09:01;;;;;;;;;;;;;;;;;;5075270;28;19928;-66
2023/03/03 08:11:27;;;;;;;;;;;;;;;;;;5058468;28;19924;-66
2023/03/03 08:13:52;;;;;;;;;;;4.00;99.90;;;;;;5083915;28;19928;-66
2023/03/03 08:16:18;;;;;;;;;;;;;;;;;;5081503;28;20312;-64
2023/03/03 08:18:47;;;;;;;;;;;;;;;;;;5077664;28;19927;-65
2023/03/03 08:21:13;;;;;;;;;;;;;;;;;;5076045;28;19936;-64
2023/03/03 08:23:39;;;;;;;;;;;5.10;99.90;;;;;;5077383;28;20373;-65
2023/03/03 08:26:05;;;;;;;;;;;;;;;;;;5055885;28;20618;-65
2023/03/03 08:28:31;;;;;;;;;;;;;;;;;;5060492;28;20300;-65
2023/03/03 08:30:56;;;;;;;;;;;;;;;;;;5072013;28;19924;-66
2023/03/03 08:33:22;;;;;;;;;;;5.10;99.90;;;;;;5045436;28;20416;-66
2023/03/03 08:35:48;;;;;;;;;;;6.00;99.90;;;;;;5065547;28;20385;-65
2023/03/03 08:38:13;;;;;;;;;;;;;;;;;;5047064;28;19963;-64
2023/03/03 08:40:39;;;;;;;;;;;;;;;;;;5065946;28;19921;-66
2023/03/03 08:43:05;;;;;;;;;;;;;;;;;;5060780;28;19921;-64
2023/03/03 08:45:31;;;;;;;;;;;5.70;99.90;;;;;;5059891;28;19921;-64
2023/03/03 08:47:58;;;;;;;;;;;5.40;99.90;;;;;;5036203;28;20365;-65
2023/03/03 08:50:24;;;;;;;;;;;;;;;;;;5057587;28;19928;-63
2023/03/03 08:52:50;;;;;;;;;;;;;;;;;;5068118;28;19920;-66
2023/03/03 08:55:16;;;;;;;;;;;;;;;;;;5071028;28;19924;-66
2023/03/03 08:57:42;;;;;;;;;;;6.30;98.90;;;;;;5068600;28;19920;-66
2023/03/03 09:00:08;;;;;;;;;;;;;;;;;;5065072;28;19925;-65
2023/03/03 09:02:34;;;;;;;;;;;6.40;92.80;;;;;;5051613;28;19924;-66
2023/03/03 09:04:59;;;;;;;;;;;;;;;;;;5050036;28;19920;-65
2023/03/03 09:07:25;;;;;;;;;;;;;;;;;;5062134;28;19931;-65
2023/03/03 09:09:51;;;;;;;;;;;;;;;;;;5042893;28;20425;-64
2023/03/03 09:12:37;;;;;;;;;;;6.90;68.70;;;;;;5039031;28;20478;-66
2023/03/03 09:15:03;;;;;;;;;;;;;;;;;;5037355;28;19971;-65
2023/03/03 09:17:31;;;;;;;;;;;6.80;62.20;;;;;;5052477;28;19966;-66
2023/03/03 09:19:57;;;;;;;;;;;;;;;;;;5058803;28;19927;-64
2023/03/03 09:22:23;;;;;;;;;;;;;;;;;;5044453;28;19932;-64
2023/03/03 09:24:52;;;;;;;;;;;7.70;55.90;;;;;;5054312;28;19925;-65
2023/03/03 09:27:19;;;;;;;;;;;;;;;;;;5060389;28;20028;-65
2023/03/03 09:29:44;;;;;;;;;;;;;;;;;;5062291;28;19931;-65
2023/03/03 09:32:13;;;;;;;;;;;8.00;43.20;;;;;;5055225;28;20016;-65
2023/03/03 09:34:39;;;;;;;;;;;;;;;;;;5063234;28;19928;-64
2023/03/03 09:37:05;;;;;;;;;;;;;;;;;;5064494;28;20144;-65
2023/03/03 09:39:34;;;;;;;;;;;8.10;28.30;;;;;;5051516;28;20353;-65
2023/03/03 09:42:00;;;;;;;;;;;;;;;;;;5058738;28;19920;-66
2023/03/03 09:44:33;;;;;;;;;;;8.50;30.20;;;;;;5079843;28;19925;-66
2023/03/03 09:46:59;;;;;;;;;;;;;;;;;;5054402;28;19925;-65
2023/03/03 09:49:25;;;;;;;;;;;;;;;;;;5075576;28;19944;-66
2023/03/03 09:51:51;;;;;;;;;;;;;;;;;;5078553;28;19927;-66
2023/03/03 09:54:17;;;;;;;;;;;8.10;22.20;;;;;;5079249;28;20405;-67
2023/03/03 09:56:52;;;;;;;;;;;8.50;19.40;;;;;;5076629;28;20225;-66
2023/03/03 09:59:18;;;;;;;;;;;;;;;;;;5077444;28;19920;-66
2023/03/03 10:01:58;;;;;;;;;;;8.20;12.80;;;;;;5081412;28;20426;-66
2023/03/03 10:04:32;;;;;;;;;;;8.50;14.10;;;;;;5074988;28;19927;-66
2023/03/03 10:07:16;;;;;;;;;;;8.50;11.20;;;;;;5055277;28;19947;-65
2023/03/03 10:10:02;;;;;;;;;;;8.80;12.60;;;;;;5049024;28;19920;-66
2023/03/03 10:12:28;;;;;;;;;;;;;;;;;;5074881;28;20007;-65
2023/03/03 10:15:06;;;;;;;;;;;8.40;9.90;;;;;;5078493;28;20018;-66
2023/03/03 10:17:40;;;;;;;;;;;8.40;4.30;;;;;;5052422;28;19920;-66
2023/03/03 10:20:08;;;;;;;;;;;9.00;3.90;;;;;;5071523;28;19928;-65
2023/03/03 10:22:43;;;;;;;;;;;8.20;5.70;;;;;;5076989;28;19955;-65
2023/03/03 10:25:09;;;;;;;;;;;;;;;;;;5059672;28;19964;-66
2023/03/03 10:27:50;;;;;;;;;;;8.40;6.40;;;;;;5076681;28;20420;-66
2023/03/03 10:30:17;;;;;;;;;;;;;;;;;;5077738;28;19932;-65
2023/03/03 10:32:44;;;;;;;;;;;;;;;;;;5081412;28;19955;-65
2023/03/03 10:35:12;;;;;;;;;;;8.40;1.00;;;;;;5079547;28;19921;-66
2023/03/03 10:37:38;;;;;;;;;;;;;;;;;;5079076;28;19920;-66
2023/03/03 10:40:05;;;;;;;;;;;8.20;1.00;;;;;;5062972;28;19966;-67
2023/03/03 10:42:31;;;;;;;;;;;;;;;;;;5081782;28;19920;-66
2023/03/03 10:45:06;;;;;;;;;;;8.40;1.00;;;;;;5080136;28;19931;-65
2023/03/03 10:47:32;;;;;;;;;;;;;;;;;;5084277;28;21312;-65
2023/03/03 10:49:58;;;;;;;;;;;;;;;;;;5081223;28;19920;-65
2023/03/03 10:52:24;;;;;;;;;;;8.60;1.00;;;;;;5072003;28;20008;-65
2023/03/03 10:54:50;;;;;;;;;;;;;;;;;;5062929;28;19943;-64
2023/03/03 10:57:16;;;;;;;;;;;;;;;;;;5066369;28;19920;-64
2023/03/03 10:59:42;;;;;;;;;;;;;;;;;;5068956;28;20370;-66
2023/03/03 11:02:08;;;;;;;;;;;;;;;;;;5074135;28;20015;-66
2023/03/03 11:04:42;;;;;;;;;;;10.10;1.00;;;;;;5082150;28;20515;-66
2023/03/03 11:07:20;;;;;;;;;;;9.80;1.00;;;;;;5086084;28;20454;-66
2023/03/03 11:09:58;;;;;;;;;;;10.00;1.00;;;;;;5071147;28;19939;-65
2023/03/03 11:12:23;;;;;;;;;;;10.20;1.00;;;;;;5068935;28;19929;-66
2023/03/03 11:14:49;;;;;;;;;;;;;;;;;;5071268;28;19920;-66
2023/03/03 11:17:15;;;;;;;;;;;;;;;;;;5067498;22;20011;-60
2023/03/03 11:19:41;;;;;;;;;;;;;;;;;;5063922;28;20017;-59
2023/03/03 11:22:07;;;;;;;;;;;;;;;;;;5053408;28;20408;-59
2023/03/03 11:24:33;;;;;;;;;;;;;;;;;;5058363;28;19920;-59
2023/03/03 11:26:59;;;;;;;;;;;;;;;;;;5057774;28;19920;-60
2023/03/03 11:29:45;;;;;;;;;;;10.00;1.00;;;;;;5068125;28;20015;-59
2023/03/03 11:32:14;;;;;;;;;;;10.50;1.00;;;;;;5054661;28;19956;-59
2023/03/03 11:34:39;;;;;;;;;;;10.00;1.00;;;;;;5052691;28;20316;-58
2023/03/03 11:37:21;;;;;;;;;;;10.10;1.00;;;;;;5061527;28;19921;-59
2023/03/03 11:39:47;;;;;;;;;;;;;;;;;;5050134;28;20321;-59
2023/03/03 11:42:13;;;;;;;;;;;;;;;;;;5064859;28;19920;-60
2023/03/03 11:44:39;;;;;;;;;;;;;;;;;;5058436;28;19921;-58
2023/03/03 11:47:05;;;;;;;;;;;;;;;;;;5059926;28;19925;-59
2023/03/03 11:49:44;;;;;;;;;;;10.30;1.00;;;;;;5062648;28;20107;-59
2023/03/03 11:52:28;;;;;;;;;;;10.70;1.00;;;;;;5070985;28;19921;-60
2023/03/03 11:55:00;;;;;;;;;;;10.00;1.00;;;;;;5055376;28;19935;-59
2023/03/03 11:57:25;;;;;;;;;;;;;;;;;;5058957;28;19920;-58
2023/03/03 11:59:51;;;;;;;;;;;;;;;;;;5055625;28;19928;-58
2023/03/03 12:02:17;;;;;;;;;;;;;;;;;;5056490;28;19921;-60
2023/03/03 12:04:49;;;;;;;;;;;12.10;1.00;;;;;;5058230;28;20120;-59
2023/03/03 12:07:14;;;;;;;;;;;;;;;;;;5051072;28;19921;-60
2023/03/03 12:09:40;;;;;;;;;;;;;;;;;;5063005;28;19924;-59
2023/03/03 12:12:07;;;;;;;;;;;;;;;;;;5064864;28;19921;-60
2023/03/03 12:14:33;;;;;;;;;;;;;;;;;;5059684;28;19925;-59
2023/03/03 12:17:00;;;;;;;;;;;;;;;;;;5063978;28;19920;-59
2023/03/03 12:19:34;;;;;;;;;;;14.00;1.00;;;;;;5053370;28;19920;-60
2023/03/03 12:22:06;;;;;;;;;;;14.30;1.00;;;;;;5052311;28;19929;-59
2023/03/03 12:24:40;;;;;;;;;;;13.70;1.00;;;;;;5055830;28;20423;-59
2023/03/03 12:27:09;;;;;;;;;;;15.10;1.00;;;;;;5049471;28;19925;-60
2023/03/03 12:29:53;;;;;;;;;;;16.30;1.00;;;;;;5050060;28;19925;-60
2023/03/03 12:32:34;;;;;;;;;;;16.70;1.00;;;;;;5062271;28;19936;-60
2023/03/03 12:35:02;;;;;;;;;;;16.80;1.00;;;;;;5060196;28;19964;-60
2023/03/03 12:37:31;;;;;;;;;;;16.00;1.00;;;;;;5055829;28;20011;-61
2023/03/03 12:40:07;;;;;;;;;;;14.60;1.00;;;;;;5055343;28;19921;-58
2023/03/03 12:42:40;;;;;;;;;;;14.20;1.00;;;;;;5056926;28;19924;-60
2023/03/03 12:45:06;;;;;;;;;;;;;;;;;;5064997;28;19925;-60
2023/03/03 12:47:41;;;;;;;;;;;14.10;1.00;;;;;;5066924;28;19921;-58
2023/03/03 12:50:07;;;;;;;;;;;;;;;;;;5065055;28;20015;-60
2023/03/03 12:52:33;;;;;;;;;;;;;;;;;;5054371;28;19999;-59
2023/03/03 12:55:08;;;;;;;;;;;12.70;1.00;;;;;;5055008;28;19974;-58
2023/03/03 12:57:36;;;;;;;;;;;11.70;1.00;;;;;;5057498;28;19935;-59
2023/03/03 13:00:03;;;;;;;;;;;;;;;;;;5067488;28;20445;-56
2023/03/03 13:02:29;;;;;;;;;;;;;;;;;;5065040;28;19924;-61
2023/03/03 13:04:55;;;;;;;;;;;;;;;;;;5059745;28;20521;-59
2023/03/03 13:07:21;;;;;;;;;;;;;;;;;;5056882;28;19921;-61
2023/03/03 13:09:47;;;;;;;;;;;;;;;;;;5061258;28;20023;-61
2023/03/03 13:12:12;;;;;;;;;;;11.20;1.00;;;;;;5062250;28;19927;-60
2023/03/03 13:14:40;;;;;;;;;;;;;;;;;;5063846;28;21545;-61
2023/03/03 13:17:06;;;;;;;;;;;;;;;;;;5058189;28;19932;-61
2023/03/03 13:19:32;;;;;;;;;;;;;;;;;;5059836;28;19921;-58
2023/03/03 13:22:00;;;;;;;;;;;;;;;;;;5055974;28;19921;-60
2023/03/03 13:24:25;;;;;;;;;;;10.40;1.00;;;;;;5054841;28;19982;-60
2023/03/03 13:26:54;;;;;;;;;;;11.50;1.00;;;;;;5058842;28;20369;-60
2023/03/03 13:29:20;;;;;;;;;;;11.60;1.00;;;;;;5070388;28;19963;-61
2023/03/03 13:31:48;;;;;;;;;;;11.60;1.00;;;;;;5058924;28;19960;-60
2023/03/03 13:34:42;;;;;;;;;;;10.70;1.00;;;;;;5069542;28;20003;-61
2023/03/03 13:37:11;;;;;;;;;;;11.40;1.00;;;;;;5041957;28;19925;-60
2023/03/03 13:39:37;;;;;;;;;;;;;;;;;;5062062;28;19927;-60
2023/03/03 13:42:03;;;;;;;;;;;;;;;;;;5069378;28;19920;-61
2023/03/03 13:44:28;;;;;;;;;;;;;;;;;;5064541;28;20389;-61
2023/03/03 13:47:01;;;;;;;;;;;10.20;1.00;;;;;;5055260;28;19942;-61
2023/03/03 13:49:39;;;;;;;;;;;10.10;1.00;;;;;;5057936;28;19973;-60
2023/03/03 13:52:05;;;;;;;;;;;;;;;;;;5052645;28;19925;-61
2023/03/03 13:55:00;;;;;;;;;;;10.40;1.00;;;;;;5060175;28;19924;-61
2023/03/03 13:57:26;;;;;;;;;;;;;;;;;;5042985;28;19921;-61
2023/03/03 14:00:10;;;;;;;;;;;10.20;1.00;;;;;;5053193;28;19928;-59
2023/03/03 14:02:36;;;;;;;;;;;;;;;;;;5050854;28;19990;-60
2023/03/03 14:05:03;;;;;;;;;;;;;;;;;;5056524;28;20600;-60
2023/03/03 14:07:29;;;;;;;;;;;;;;;;;;5052702;28;19925;-61
2023/03/03 14:10:03;;;;;;;;;;;10.00;1.00;;;;;;5062858;28;20395;-61
2023/03/03 14:12:29;;;;;;;;;;;;;;;;;;5065132;28;19935;-60
2023/03/03 14:15:02;;;;;;;;;;;9.80;1.00;;;;;;5064586;28;19920;-60
2023/03/03 14:17:33;;;;;;;;;;;9.30;1.00;;;;;;5060833;28;19925;-60
2023/03/03 14:19:58;;;;;;;;;;;9.10;1.00;;;;;;5065256;28;19920;-60
2023/03/03 14:22:24;;;;;;;;;;;;;;;;;;5069967;28;19965;-59
2023/03/03 14:24:50;;;;;;;;;;;;;;;;;;5061244;28;19921;-59
2023/03/03 14:27:16;;;;;;;;;;;;;;;;;;5056598;28;20358;-60
2023/03/03 14:29:42;;;;;;;;;;;;;;;;;;5068114;28;20054;-60
2023/03/03 14:32:08;;;;;;;;;;;;;;;;;;5064461;28;19924;-62
2023/03/03 14:34:38;;;;;;;;;;;8.70;1.00;;;;;;5067916;28;19967;-61
2023/03/03 14:37:04;;;;;;;;;;;;;;;;;;5061291;28;19920;-60
2023/03/03 14:39:35;;;;;;;;;;;8.70;1.00;;;;;;5059155;28;19931;-61
2023/03/03 14:42:01;;;;;;;;;;;9.40;1.00;;;;;;5063193;28;19921;-61
2023/03/03 14:44:27;;;;;;;;;;;;;;;;;;5068109;28;20429;-61
2023/03/03 14:46:53;;;;;;;;;;;;;;;;;;5056491;28;20097;-59
2023/03/03 14:49:30;;;;;;;;;;;9.10;1.00;;;;;;5058752;28;19933;-59
2023/03/03 14:51:56;;;;;;;;;;;;;;;;;;5062259;28;19955;-60
2023/03/03 14:54:22;;;;;;;;;;;;;;;;;;5069644;28;20025;-60
2023/03/03 14:56:48;;;;;;;;;;;;;;;;;;5060565;28;19920;-58
2023/03/03 14:59:22;;;;;;;;;;;8.40;1.00;;;;;;5085337;28;20343;-58
2023/03/03 15:01:56;;;;;;;;;;;8.40;1.00;;;;;;5056929;28;19926;-59
2023/03/03 15:04:21;;;;;;;;;;;;;;;;;;5069165;28;19920;-57
2023/03/03 15:06:48;;;;;;;;;;;8.40;1.00;;;;;;5067882;28;20385;-61
2023/03/03 15:09:23;;;;;;;;;;;8.50;1.00;;;;;;5070031;28;19928;-60
2023/03/03 15:11:49;;;;;;;;;;;;;;;;;;5067744;28;19928;-61
2023/03/03 15:14:15;;;;;;;;;;;8.90;1.00;;;;;;5087526;28;19966;-61
2023/03/03 15:16:44;;;;;;;;;;;;;;;;;;5053245;28;20361;-60
2023/03/03 15:19:12;;;;;;;;;;;;;;;;;;5058512;28;19929;-60
2023/03/03 15:21:38;;;;;;;;;;;;;;;;;;5061291;28;19926;-57
2023/03/03 15:24:04;;;;;;;;;;;;;;;;;;5071364;28;19920;-61
2023/03/03 15:26:30;;;;;;;;;;;;;;;;;;5059568;28;19984;-60
2023/03/03 15:28:58;;;;;;;;;;;;;;;;;;5061310;28;20011;-59
2023/03/03 15:31:24;;;;;;;;;;;;;;;;;;5056598;28;19982;-60
2023/03/03 15:33:52;;;;;;;;;;;8.30;1.00;;;;;;5059657;28;19924;-58
2023/03/03 15:36:18;;;;;;;;;;;;;;;;;;5057141;28;19920;-60
2023/03/03 15:38:44;;;;;;;;;;;;;;;;;;5065790;28;20347;-61
2023/03/03 15:41:10;;;;;;;;;;;;;;;;;;5060586;28;19943;-58
2023/03/03 15:43:36;;;;;;;;;;;;;;;;;;5058280;28;19927;-60
2023/03/03 15:46:24;;;;;;;;;;;8.20;1.00;;;;;;5057931;28;20007;-59
2023/03/03 15:48:50;;;;;;;;;;;;;;;;;;5057507;28;20027;-59
2023/03/03 15:51:16;;;;;;;;;;;;;;;;;;5078185;28;20405;-60
2023/03/03 15:54:00;;;;;;;;;;;7.80;1.00;;;;;;5060716;28;19921;-59
2023/03/03 15:56:26;;;;;;;;;;;;;;;;;;5055349;28;19921;-59